Flight Track Log - Related Links

Times and Time Zones

All times are in EDT time to prevent confusion due to time zone crossing. See the RPA3247 flight status page for this flight to view local times or setup timezone preferences in your user account.

Time Position Orientation Groundspeed Altitude Reporting Facility
EDT Latitude Longitude Course Direction KTS MPH feet Rate Location/Type
Fri 08:14:27 PM 38.7833 -77.0333 230° Southwest 192 221 2,400  Level Potomac TRACON
Fri 08:15:27 PM 38.7500 -77.1000 237° Southwest 281 323 4,300 2,169 Climbing Potomac TRACON
Fri 08:16:00 PM 38.5433 -77.3734 218° Southwest  Level FlightAware Approximate
Fri 08:17:00 PM 38.4692 -77.4659 225° Southwest  Level FlightAware Approximate
Fri 08:17:13 PM 38.7039 -77.2517 249° West 295 339 8,400  Level Washington Center
Fri 08:18:00 PM 38.3896 -77.5469 201° Southwest  Level FlightAware Approximate
Fri 08:18:11 PM 38.6406 -77.3142 218° Southwest 285 328 10,900  Level Washington Center
Fri 08:19:00 PM 38.3239 -77.6476 230° Southwest  Level FlightAware Approximate
Fri 08:19:11 PM 38.5747 -77.3814 219° Southwest 285 328 13,000  Level Washington Center
Fri 08:20:12 PM 38.5069 -77.4542 220° Southwest 304 350 14,900 1,785 Climbing Washington Center
Fri 08:21:12 PM 38.4369 -77.5267 219° Southwest 326 375 16,600 1,686 Climbing Washington Center
Fri 08:22:13 PM 38.3689 -77.6122 225° Southwest 336 387 18,300 1,916 Climbing Washington Center
Fri 08:23:11 PM 38.3069 -77.7058 230° Southwest 346 398 20,400 2,017 Climbing Washington Center
Fri 08:24:12 PM 38.2447 -77.8044 231° Southwest 358 412 22,300 1,918 Climbing Washington Center
Fri 08:25:13 PM 38.1803 -77.9031 230° Southwest 370 426 24,300 1,815 Climbing Washington Center
Fri 08:26:11 PM 38.1158 -78.0014 230° Southwest 370 426 25,900 1,462 Climbing Washington Center
Fri 08:27:12 PM 38.0467 -78.1072 230° Southwest 375 432 27,200 1,328 Climbing Washington Center
Fri 08:28:13 PM 37.9800 -78.2078 230° Southwest 374 430 28,600 1,289 Climbing Washington Center
Fri 08:29:13 PM 37.9067 -78.3131 229° Southwest 382 440 29,800 756 Climbing Washington Center
Fri 08:30:12 PM 37.8375 -78.4158 230° Southwest 388 447 30,100 706 Climbing Washington Center
Fri 08:31:12 PM 37.7761 -78.5450 239° Southwest 395 455 31,200 1,091 Climbing Washington Center
Fri 08:32:13 PM 37.7294 -78.6639 244° Southwest 395 455 32,300 893 Climbing Washington Center
Fri 08:33:13 PM 37.6825 -78.7828 244° Southwest 389 448 33,000 458 Climbing Washington Center
Fri 08:34:11 PM 37.6375 -78.9042 245° Southwest 384 442 33,200 458 Climbing Washington Center
Fri 08:35:11 PM 37.5758 -79.0142 235° Southwest 384 442 33,900 397 Climbing Washington Center
Fri 08:36:12 PM 37.5025 -79.0972 222° Southwest 384 442 34,000 49 Climbing Washington Center
Fri 08:37:13 PM 37.4247 -79.1903 224° Southwest 389 448 34,000  Level Washington Center
Fri 08:38:12 PM 37.3447 -79.2806 222° Southwest 389 448 34,000  Level Washington Center
Fri 08:39:13 PM 37.2667 -79.3761 224° Southwest 389 448 34,000  Level Washington Center
Fri 08:40:13 PM 37.1886 -79.4711 224° Southwest 389 448 34,000  Level Washington Center
Fri 08:41:13 PM 37.1083 -79.5636 223° Southwest 389 448 34,000  Level Washington Center
Fri 08:42:12 PM 37.0192 -79.6683 223° Southwest 395 455 34,000  Level Washington Center
Fri 08:43:12 PM 36.9389 -79.7653 224° Southwest 395 455 34,000  Level Washington Center
Fri 08:44:12 PM 36.8603 -79.8572 223° Southwest 395 455 34,000  Level Washington Center
Fri 08:45:13 PM 36.7819 -79.9486 223° Southwest 395 455 34,000  Level Washington Center
Fri 08:46:01 PM 36.7122 -80.0275 222° Southwest 398 458 34,000  Level Atlanta Center
Fri 08:47:01 PM 36.6397 -80.1089 222° Southwest 404 465 34,000  Level Atlanta Center
Fri 08:48:01 PM 36.5592 -80.2006 222° Southwest 404 465 34,000  Level Atlanta Center
Fri 08:49:01 PM 36.4747 -80.3003 224° Southwest 398 458 34,000  Level Atlanta Center
Fri 08:50:01 PM 36.3942 -80.3917 222° Southwest 398 458 34,000  Level Atlanta Center
Fri 08:51:01 PM 36.3156 -80.4856 224° Southwest 398 458 34,000  Level Atlanta Center
Fri 08:52:01 PM 36.2367 -80.5714 221° Southwest 398 458 34,000  Level Atlanta Center
Fri 08:53:01 PM 36.1642 -80.6644 226° Southwest 383 441 34,000  Level Atlanta Center
Fri 08:54:01 PM 36.0831 -80.7525 221° Southwest 388 447 34,000  Level Atlanta Center
Fri 08:55:01 PM 36.0061 -80.8431 224° Southwest 388 447 34,000  Level Atlanta Center
Fri 08:56:01 PM 35.9292 -80.9281 222° Southwest 383 441 34,000  Level Atlanta Center
Fri 08:57:01 PM 35.8522 -81.0181 223° Southwest 383 441 34,000  Level Atlanta Center
Fri 08:58:01 PM 35.7769 -81.1028 222° Southwest 383 441 34,000  Level Atlanta Center
Fri 08:59:01 PM 35.7144 -81.1869 228° Southwest 375 432 34,000  Level Atlanta Center
Fri 09:00:01 PM 35.6542 -81.2914 235° Southwest 375 432 34,000  Level Atlanta Center
Fri 09:01:01 PM 35.5814 -81.4036 231° Southwest 383 441 34,000  Level Atlanta Center
Fri 09:02:01 PM 35.5189 -81.5000 231° Southwest 376 433 34,000  Level Atlanta Center
Fri 09:03:01 PM 35.4583 -81.5961 232° Southwest 369 425 34,000  Level Atlanta Center
Fri 09:04:01 PM 35.3953 -81.6922 231° Southwest 369 425 34,000  Level Atlanta Center
Fri 09:05:01 PM 35.3325 -81.7933 233° Southwest 374 430 34,000  Level Atlanta Center
Fri 09:06:01 PM 35.2697 -81.8892 231° Southwest 369 425 34,000  Level Atlanta Center
Fri 09:07:01 PM 35.2147 -81.9769 233° Southwest 374 430 34,000  Level Atlanta Center
Fri 09:08:01 PM 35.1497 -82.0778 232° Southwest 374 430 34,000  Level Atlanta Center
Fri 09:09:01 PM 35.0867 -82.1758 232° Southwest 374 430 34,000  Level Atlanta Center
Fri 09:10:01 PM 35.0172 -82.2811 231° Southwest 374 430 34,000  Level Atlanta Center
Fri 09:11:01 PM 34.9558 -82.3764 232° Southwest 369 425 34,000  Level Atlanta Center
Fri 09:12:01 PM 34.8906 -82.4789 232° Southwest 376 433 34,000  Level Atlanta Center
Fri 09:13:01 PM 34.8247 -82.5736 230° Southwest 376 433 34,000  Level Atlanta Center
Fri 09:14:01 PM 34.7633 -82.6708 232° Southwest 376 433 34,000  Level Atlanta Center
Fri 09:15:01 PM 34.6956 -82.7706 230° Southwest 376 433 34,000  Level Atlanta Center
Fri 09:16:01 PM 34.6400 -82.8547 231° Southwest 371 427 34,000  Level Atlanta Center
Fri 09:17:01 PM 34.5742 -82.9539 231° Southwest 371 427 34,000  Level Atlanta Center
Fri 09:18:01 PM 34.5103 -83.0506 231° Southwest 371 427 34,000  Level Atlanta Center
Fri 09:19:01 PM 34.4464 -83.1497 232° Southwest 376 433 34,000  Level Atlanta Center
Fri 09:20:01 PM 34.3822 -83.2458 231° Southwest 376 433 34,000  Level Atlanta Center
Fri 09:21:01 PM 34.3119 -83.3522 231° Southwest 376 433 34,000  Level Atlanta Center
Fri 09:22:01 PM 34.2500 -83.4508 233° Southwest 376 433 34,000  Level Atlanta Center
Fri 09:23:01 PM 34.1836 -83.5467 230° Southwest 376 433 34,000  Level Atlanta Center
Fri 09:24:01 PM 34.1172 -83.6422 230° Southwest 376 433 34,000  Level Atlanta Center
Fri 09:25:01 PM 34.0528 -83.7378 231° Southwest 376 433 34,000  Level Atlanta Center
Fri 09:26:01 PM 33.9881 -83.8358 231° Southwest 376 433 34,000  Level Atlanta Center
Fri 09:27:01 PM 33.9194 -83.9361 231° Southwest 376 433 34,000  Level Atlanta Center
Fri 09:28:01 PM 33.8528 -84.0314 230° Southwest 376 433 34,000  Level Atlanta Center
Fri 09:29:01 PM 33.7942 -84.1164 230° Southwest 376 433 34,000  Level Atlanta Center
Fri 09:30:01 PM 33.7314 -84.2136 232° Southwest 376 433 34,000  Level Atlanta Center
Fri 09:31:01 PM 33.6583 -84.3083 227° Southwest 376 433 34,000  Level Atlanta Center
Fri 09:32:01 PM 33.5933 -84.4081 232° Southwest 376 433 34,000  Level Atlanta Center
Fri 09:33:01 PM 33.5242 -84.5122 231° Southwest 376 433 34,000  Level Atlanta Center
Fri 09:34:01 PM 33.4569 -84.6089 230° Southwest 376 433 34,000  Level Atlanta Center
Fri 09:35:01 PM 33.3897 -84.7081 231° Southwest 376 433 34,000  Level Atlanta Center
Fri 09:36:01 PM 33.3244 -84.8019 230° Southwest 376 433 34,000  Level Atlanta Center
Fri 09:37:01 PM 33.2589 -84.8958 230° Southwest 376 433 34,000  Level Atlanta Center
Fri 09:38:01 PM 33.1956 -84.9922 232° Southwest 376 433 34,000  Level Atlanta Center
Fri 09:39:01 PM 33.1281 -85.0856 229° Southwest 376 433 34,000  Level Atlanta Center
Fri 09:40:01 PM 33.0689 -85.1667 229° Southwest 370 426 34,000  Level Atlanta Center
Fri 09:41:01 PM 32.9969 -85.2672 230° Southwest 365 420 34,000  Level Atlanta Center
Fri 09:42:01 PM 32.9314 -85.3606 230° Southwest 365 420 34,000  Level Atlanta Center
Fri 09:43:01 PM 32.8636 -85.4533 229° Southwest 370 426 34,000  Level Atlanta Center
Fri 09:44:01 PM 32.7997 -85.5464 231° Southwest 370 426 34,000  Level Atlanta Center
Fri 09:45:01 PM 32.7339 -85.6389 230° Southwest 370 426 34,000  Level Atlanta Center
Fri 09:46:01 PM 32.6681 -85.7292 229° Southwest 370 426 34,000  Level Atlanta Center
Fri 09:47:01 PM 32.6042 -85.8217 231° Southwest 370 426 34,000  Level Atlanta Center
Fri 09:48:01 PM 32.5381 -85.9114 229° Southwest 375 432 34,000  Level Atlanta Center
Fri 09:49:01 PM 32.4719 -86.0061 230° Southwest 375 432 34,000  Level Atlanta Center
Fri 09:50:01 PM 32.4100 -86.0933 230° Southwest 368 423 34,000  Level Atlanta Center
Fri 09:51:01 PM 32.3417 -86.1850 229° Southwest 368 423 34,000  Level Atlanta Center
Fri 09:52:01 PM 32.2925 -86.2550 230° Southwest 368 423 34,000  Level Atlanta Center
Fri 09:53:01 PM 32.2217 -86.3589 231° Southwest 363 418 34,000  Level Atlanta Center
Fri 09:54:01 PM 32.1531 -86.4553 230° Southwest 363 418 34,000  Level Atlanta Center
Fri 09:55:01 PM 32.0886 -86.5417 229° Southwest 358 412 34,000  Level Atlanta Center
Fri 09:56:01 PM 32.0261 -86.6306 230° Southwest 358 412 34,000  Level Atlanta Center
Fri 09:57:01 PM 31.9642 -86.7072 226° Southwest 358 412 34,000  Level Atlanta Center
Fri 09:58:01 PM 31.8997 -86.7933 229° Southwest 358 412 34,000  Level Atlanta Center
Fri 09:59:01 PM 31.8350 -86.8819 229° Southwest 358 412 34,000  Level Atlanta Center
Fri 10:00:01 PM 31.7725 -86.9678 229° Southwest 358 412 34,000  Level Atlanta Center
Fri 10:01:01 PM 31.7078 -87.0536 228° Southwest 358 412 34,000  Level Atlanta Center
Fri 10:02:01 PM 31.6428 -87.1489 231° Southwest 352 405 34,000  Level Atlanta Center
Fri 10:04:21 PM 31.5017 -87.3350 228° Southwest 346 398 34,000  Level Houston Center
Fri 10:05:22 PM 31.4389 -87.4197 229° Southwest 345 397 34,000  Level Houston Center
Fri 10:06:23 PM 31.3750 -87.5047 229° Southwest 346 398 34,000  Level Houston Center
Fri 10:07:24 PM 31.2947 -87.6053 227° Southwest 350 403 34,000  Level Houston Center
Fri 10:08:25 PM 31.2322 -87.6906 229° Southwest 348 400 34,000  Level Houston Center
Fri 10:09:26 PM 31.1575 -87.7606 219° Southwest 337 388 34,000  Level Houston Center
Fri 10:10:27 PM 31.1036 -87.8539 236° Southwest 346 398 34,000  Level Houston Center
Fri 10:11:28 PM 31.0508 -87.9481 237° Southwest 347 399 34,000  Level Houston Center
Fri 10:12:30 PM 30.9942 -88.0417 235° Southwest 353 406 34,000  Level Houston Center
Fri 10:13:31 PM 30.9444 -88.1353 238° Southwest 344 396 34,000  Level Houston Center
Fri 10:14:32 PM 30.8883 -88.2300 235° Southwest 354 407 34,000  Level Houston Center
Fri 10:15:33 PM 30.8375 -88.3233 238° Southwest 344 396 34,000 -98 Level Houston Center
Fri 10:16:34 PM 30.7844 -88.4147 236° Southwest 341 392 33,800 -689 Descending Houston Center
Fri 10:17:35 PM 30.7325 -88.5061 237° Southwest 339 390 32,600 -1,268 Descending Houston Center
Fri 10:18:37 PM 30.6778 -88.6033 237° Southwest 339 390 31,200 -1,574 Descending Houston Center
Fri 10:19:37 PM 30.6244 -88.6950 236° Southwest 343 395 29,400 -1,820 Descending Houston Center
Fri 10:20:39 PM 30.5736 -88.7847 237° Southwest 334 384 27,500 -1,756 Descending Houston Center
Fri 10:21:40 PM 30.5247 -88.8694 236° Southwest 321 369 25,800 -1,820 Descending Houston Center
Fri 10:22:41 PM 30.4700 -88.9642 236° Southwest 312 359 23,800 -1,820 Descending Houston Center
Fri 10:23:42 PM 30.4233 -89.0458 236° Southwest 305 351 22,100 -1,623 Descending Houston Center
Fri 10:24:43 PM 30.3850 -89.1317 243° Southwest 301 346 20,500 -1,623 Descending Houston Center
Fri 10:25:44 PM 30.3536 -89.2192 247° West 294 338 18,800 -1,667 Descending Houston Center
Fri 10:26:31 PM 30.3261 -89.2978 248° West 295 339 17,500 -1,518 Descending Houston Center
Fri 10:27:07 PM 30.3089 -89.3444 247° West 294 338 16,700 -1,520 Descending Houston Center
Fri 10:27:46 PM 30.2900 -89.3933 246° West 292 336 15,600 -1,672 Descending Houston Center
Fri 10:28:08 PM 30.2706 -89.4356 242° Southwest 289 333 15,000 -1,574 Descending Houston Center
Fri 10:28:47 PM 30.2486 -89.4733 236° Southwest 289 333 14,000 -1,700 Descending Houston Center
Fri 10:29:08 PM 30.2275 -89.5147 239° Southwest 291 335 13,300 -1,574 Descending Houston Center
Fri 10:29:48 PM 30.2050 -89.5522 235° Southwest 290 334 12,400 -1,475 Descending Houston Center
Fri 10:30:09 PM 30.1842 -89.5914 238° Southwest 287 330 11,800 -1,475 Descending Houston Center
Fri 10:30:49 PM 30.1631 -89.6300 238° Southwest 285 328 10,900 -1,574 Descending Houston Center
Fri 10:31:10 PM 30.1450 -89.6675 241° Southwest 277 319 10,200 -1,475 Descending Houston Center
Fri 10:31:50 PM 30.1236 -89.7067 238° Southwest 278 320 9,400 -1,500 Descending Houston Center
Fri 10:32:10 PM 30.1058 -89.7439 241° Southwest 271 312 8,700 -1,475 Descending Houston Center
Fri 10:32:51 PM 30.0847 -89.7819 237° Southwest 273 314 7,900 -1,377 Descending Houston Center
Fri 10:33:11 PM 30.0686 -89.8178 243° Southwest 268 308 7,300 -1,377 Descending Houston Center
Fri 10:33:52 PM 30.0494 -89.8589 242° Southwest 271 312 6,500 -1,475 Descending Houston Center
Fri 10:34:12 PM 30.0336 -89.8936 242° Southwest 266 306 5,800 -1,742 Descending Houston Center
Fri 10:34:54 PM 30.0150 -89.9314 240° Southwest 265 305 4,700 -1,800 Descending Houston Center
Fri 10:35:12 PM 29.9942 -89.9650 234° Southwest 258 297 4,000 -689 Descending Houston Center
Fri 10:35:55 PM 29.9653 -90.0156 237° Southwest 263 303 4,000 -98 Level Houston Center
Fri 10:36:13 PM 29.9544 -90.0292 227° Southwest 239 275 3,900 -689 Descending Houston Center
Fri 10:36:56 PM 29.9297 -90.0706 235° Southwest 235 270 3,300 -900 Descending Houston Center
Fri 10:37:13 PM 29.9206 -90.0833 230° Southwest 193 222 3,000 -393 Descending Houston Center
Fri 10:37:57 PM 29.8900 -90.1100 217° Southwest 209 241 2,900  Descending Houston Center
Fri 10:38:20 PM 29.8631 -90.1144 188° South 202 232 3,000  Climbing Houston Center
Fri 10:38:58 PM 29.8339 -90.1247 197° South 208 239 2,900  Descending Houston Center
Fri 10:39:21 PM 29.8092 -90.1311 193° South 203 234 3,000  Climbing Houston Center
Fri 10:39:59 PM 29.7797 -90.1417 197° South 205 236 2,900  Descending Houston Center
Fri 10:40:21 PM 29.7683 -90.1617 237° Southwest 180 207 3,000  Climbing Houston Center
Fri 10:41:00 PM 29.7689 -90.1908 271° West 181 208 2,900 -295 Descending Houston Center
Fri 10:41:22 PM 29.7658 -90.2144 262° West 156 180 2,700 -885 Descending Houston Center
Fri 10:42:01 PM 29.7669 -90.2439 272° West 170 196 2,000 -689 Descending Houston Center
Fri 10:42:23 PM 29.7656 -90.2672 266° West 162 186 2,000 -98 Level Houston Center
Fri 10:43:02 PM 29.7800 -90.2844 314° West 164 189 1,900  Descending Houston Center
Fri 10:43:23 PM 29.7956 -90.2922 337° Northwest 139 160 2,000 98 Climbing Houston Center
Fri 10:44:03 PM 29.8161 -90.3006 341° North 148 170 2,000  Level Houston Center
Fri 10:44:24 PM 29.8333 -90.3003 North 135 155 2,000 -98 Level Houston Center
Fri 10:45:04 PM 29.8542 -90.2953 12° North 142 163 1,900  Descending Houston Center
Fri 10:45:24 PM 29.8706 -90.2892 18° North 140 161 2,000  Climbing Houston Center
Fri 10:46:05 PM 29.8917 -90.2828 15° North 141 162 1,900 -295 Descending Houston Center
Fri 10:46:25 PM 29.9078 -90.2758 20° North 140 161 1,700 -600 Descending Houston Center

Login

Don't have an account? Register now (free) for customized features, flight alerts, and more!